Terminal Aerodrome Forecast
Issued by NWS

Home | Current Version | Previous Version | Text Only | Print | Product List | Glossary On
Versions: 1 2 3 4 5 6 7 8 9 10 11 12 13 14 15 16 17 18 19 20 21 22 23 24 25 26 27 28 29 30 31 32 33 34 35
000
FTUS42 KFFC 031948 AAA
TAFFTY
TAF AMD
KFTY 031948Z 0320/0418 26012G18KT P6SM VCSH SCT045 BKN080
     FM032200 29010KT P6SM -RA SCT025 BKN050
     FM040600 23005KT P6SM VCSH SCT020 BKN040
      TEMPO 0406/0410 VRB15G25KT 3SM TSRA BKN020CB
     FM041000 25007KT P6SM -SHRA SCT015 BKN035=

USA.gov is the U.S. government's official web portal to all federal, state and local government web resources and services.